Time;durP1;ratioP1;P1;durP2;ratioP2;P2;SDS_P1;SDS_P2;PMS_P1;PMS_P2;Temp;Humidity;BMP_temperature;BMP_pressure;BME280_temperature;BME280_humidity;BME280_pressure;Samples;Min_cycle;Max_cycle;Signal;HPM_P1;HPM_P2
2023/05/05 00:00:48;;;;;;;23.63;15.70;;;;;;;17.21;62.91;101287.41;5071625;28;20032;-54
2023/05/05 00:03:13;;;;;;;25.40;16.63;;;;;;;17.20;63.24;101291.34;5071749;28;20024;-53
2023/05/05 00:05:39;;;;;;;25.30;16.27;;;;;;;17.18;63.25;101296.50;5071803;28;20903;-51
2023/05/05 00:08:04;;;;;;;25.55;16.58;;;;;;;17.15;64.42;101289.56;5071655;28;20032;-53
2023/05/05 00:10:30;;;;;;;24.98;16.17;;;;;;;17.15;64.96;101294.38;5071571;28;20066;-53
2023/05/05 00:12:55;;;;;;;22.92;16.08;;;;;;;17.12;65.46;101295.88;5071613;28;20028;-53
2023/05/05 00:15:20;;;;;;;25.52;15.85;;;;;;;17.12;65.37;101295.03;5070131;28;20043;-52
2023/05/05 00:17:45;;;;;;;24.13;15.57;;;;;;;17.03;67.18;101281.13;5071484;28;20028;-51
2023/05/05 00:20:11;;;;;;;22.35;15.25;;;;;;;17.01;67.70;101291.84;5071318;28;20051;-52
2023/05/05 00:22:36;;;;;;;25.45;15.55;;;;;;;16.98;68.08;101287.75;5070828;28;20032;-52
2023/05/05 00:25:03;;;;;;;23.38;15.60;;;;;;;16.98;68.29;101296.13;5069944;28;20033;-52
2023/05/05 00:27:28;;;;;;;23.65;15.98;;;;;;;16.96;68.57;101294.81;5069694;28;20032;-51
2023/05/05 00:29:54;;;;;;;25.35;16.15;;;;;;;16.96;69.81;101304.03;5070963;28;20465;-52
2023/05/05 00:32:19;;;;;;;24.23;15.68;;;;;;;16.93;70.33;101303.84;5071075;28;20145;-53
2023/05/05 00:34:44;;;;;;;23.60;16.10;;;;;;;16.91;71.20;101295.00;5071089;28;20515;-53
2023/05/05 00:37:10;;;;;;;25.25;17.30;;;;;;;16.89;73.08;101305.69;5071089;28;20024;-52
2023/05/05 00:39:35;;;;;;;26.30;17.95;;;;;;;16.84;74.06;101304.75;5071017;28;20332;-53
2023/05/05 00:42:00;;;;;;;26.55;17.80;;;;;;;16.80;75.38;101314.13;5071027;28;20043;-53
2023/05/05 00:44:36;;;;;;;24.92;18.58;;;;;;;16.77;75.73;101314.78;5069474;28;20024;-54
2023/05/05 00:47:02;;;;;;;25.90;18.83;;;;;;;16.74;76.41;101298.69;5071423;28;20040;-52
2023/05/05 00:49:28;;;;;;;24.48;18.67;;;;;;;16.70;76.82;101304.16;5071004;28;20400;-53
2023/05/05 00:51:53;;;;;;;26.92;19.33;;;;;;;16.65;77.05;101296.78;5069410;28;20025;-53
2023/05/05 00:54:19;;;;;;;28.10;19.55;;;;;;;16.61;78.15;101292.19;5070886;28;20360;-53
2023/05/05 00:56:46;;;;;;;27.38;20.20;;;;;;;16.50;79.05;101297.34;5070858;28;20028;-53
2023/05/05 00:59:12;;;;;;;25.98;19.80;;;;;;;16.44;78.57;101302.31;5070888;28;20097;-51
2023/05/05 01:01:37;;;;;;;26.52;19.25;;;;;;;16.42;78.74;101312.19;5070962;28;20557;-50
2023/05/05 01:04:03;;;;;;;26.48;19.65;;;;;;;16.40;79.37;101320.88;5070931;28;20124;-50
2023/05/05 01:06:28;;;;;;;27.90;20.17;;;;;;;16.36;79.64;101319.91;5070756;28;20036;-50
2023/05/05 01:09:00;;;;;;;27.35;20.08;;;;;;;16.33;79.44;101315.81;5070777;28;20071;-51
2023/05/05 01:11:34;;;;;;;29.52;20.33;;;;;;;16.32;79.58;101310.56;5070701;28;20040;-52
2023/05/05 01:14:12;;;;;;;26.35;19.35;;;;;;;16.28;79.77;101315.19;5070613;28;20443;-50
2023/05/05 01:16:44;;;;;;;26.55;19.33;;;;;;;16.24;80.23;101314.19;5070557;28;20346;-53
2023/05/05 01:19:41;;;;;;;26.20;19.10;;;;;;;16.22;79.69;101318.16;5070747;28;20044;-51
2023/05/05 01:22:10;;;;;;;24.98;18.63;;;;;;;16.19;79.47;101327.22;5050864;28;20045;-53
2023/05/05 01:25:10;;;;;;;25.50;19.23;;;;;;;16.19;78.58;101337.53;5070683;28;20035;-50
2023/05/05 01:28:10;;;;;;;26.35;19.10;;;;;;;16.15;78.74;101331.00;5070529;28;20036;-51
2023/05/05 01:30:51;;;;;;;25.73;18.02;;;;;;;16.06;78.45;101337.38;5070699;28;20040;-53
2023/05/05 01:33:24;;;;;;;27.30;18.65;;;;;;;16.01;78.70;101342.34;5070940;28;20036;-52
2023/05/05 01:35:54;;;;;;;24.25;17.60;;;;;;;15.96;78.33;101336.94;5074673;28;20032;-53
2023/05/05 01:38:33;;;;;;;25.27;17.35;;;;;;;15.94;77.96;101348.44;5073305;28;20511;-50
2023/05/05 01:41:10;;;;;;;24.05;17.17;;;;;;;15.92;77.88;101334.00;5074822;28;20028;-50
2023/05/05 01:43:37;;;;;;;25.95;19.08;;;;;;;15.93;78.23;101330.06;5074765;28;20066;-51
2023/05/05 01:46:05;;;;;;;23.95;16.98;;;;;;;15.87;78.83;101317.44;5074445;28;20507;-50
2023/05/05 01:48:32;;;;;;;23.38;16.50;;;;;;;15.82;78.34;101310.00;5074494;28;20388;-53
2023/05/05 01:50:59;;;;;;;22.42;15.48;;;;;;;15.76;78.23;101302.97;5074327;28;20430;-52
2023/05/05 01:53:26;;;;;;;23.58;15.48;;;;;;;15.71;77.63;101303.16;5072909;28;20050;-51
2023/05/05 01:55:53;;;;;;;21.08;14.23;;;;;;;15.66;77.25;101304.13;5074240;28;20756;-53
2023/05/05 01:58:21;;;;;;;20.95;13.82;;;;;;;15.70;77.71;101321.84;5072764;28;20120;-51
2023/05/05 02:00:47;;;;;;;23.67;14.93;;;;;;;15.64;78.13;101322.31;5074169;28;20056;-52
2023/05/05 02:03:14;;;;;;;23.55;14.95;;;;;;;15.64;77.43;101325.94;5074100;28;20032;-51
2023/05/05 02:05:42;;;;;;;21.73;14.00;;;;;;;15.64;77.50;101323.16;5073785;28;20078;-52
2023/05/05 02:08:08;;;;;;;22.02;13.90;;;;;;;15.62;77.30;101322.66;5073981;28;20043;-52
2023/05/05 02:10:34;;;;;;;20.77;13.80;;;;;;;15.63;77.22;101323.50;5074022;28;20021;-50
2023/05/05 02:13:01;;;;;;;21.35;12.60;;;;;;;15.62;76.85;101322.66;5073919;28;20025;-54
2023/05/05 02:15:28;;;;;;;21.02;12.27;;;;;;;15.60;76.67;101323.00;5073940;28;20020;-52
2023/05/05 02:17:55;;;;;;;20.60;12.40;;;;;;;15.56;76.36;101326.78;5074013;28;20506;-53
2023/05/05 02:20:23;;;;;;;20.70;12.50;;;;;;;15.49;76.62;101324.47;5072598;28;20090;-54
2023/05/05 02:22:48;;;;;;;20.25;12.82;;;;;;;15.46;76.44;101327.09;5074020;28;20028;-52
2023/05/05 02:25:16;;;;;;;19.77;12.55;;;;;;;15.39;76.71;101331.22;5072643;28;20139;-53
2023/05/05 02:27:43;;;;;;;20.45;12.48;;;;;;;15.28;76.49;101316.75;5074079;28;20024;-51
2023/05/05 02:30:12;;;;;;;19.80;12.50;;;;;;;15.29;76.95;101328.75;5072737;28;20060;-53
2023/05/05 02:32:49;;;;;;;21.38;13.20;;;;;;;15.21;76.56;101327.56;5072516;28;20056;-54
2023/05/05 02:35:19;;;;;;;21.95;13.40;;;;;;;15.16;77.21;101335.28;5072812;28;20035;-52
2023/05/05 02:37:55;;;;;;;20.45;13.68;;;;;;;15.09;77.98;101339.38;5072551;28;20029;-52
2023/05/05 02:40:26;;;;;;;20.63;12.98;;;;;;;14.98;77.65;101335.25;5072662;28;20032;-50
2023/05/05 02:42:53;;;;;;;19.98;13.23;;;;;;;14.94;78.10;101337.84;5072721;28;20032;-54
2023/05/05 02:45:21;;;;;;;20.55;13.23;;;;;;;14.90;78.58;101355.53;5072127;28;20502;-54
2023/05/05 02:47:46;;;;;;;20.35;13.05;;;;;;;14.84;77.76;101351.25;5072683;28;20546;-52
2023/05/05 02:50:11;;;;;;;20.05;13.15;;;;;;;14.77;78.35;101355.34;5071010;28;20025;-52
2023/05/05 02:52:37;;;;;;;21.20;11.90;;;;;;;14.70;78.45;101351.38;5072490;28;20043;-52
2023/05/05 02:55:04;;;;;;;19.80;11.93;;;;;;;14.64;78.65;101356.25;5072306;28;20028;-53
2023/05/05 02:57:38;;;;;;;19.98;11.40;;;;;;;14.57;78.47;101361.44;5072135;28;20025;-52
2023/05/05 03:00:06;;;;;;;19.67;11.52;;;;;;;14.50;78.74;101365.53;5072381;28;20056;-52
2023/05/05 03:02:42;;;;;;;18.92;11.25;;;;;;;14.43;79.06;101358.75;5072168;28;20032;-50
2023/05/05 03:05:24;;;;;;;18.63;10.68;;;;;;;14.37;78.85;101360.03;5072114;28;20086;-52
2023/05/05 03:08:02;;;;;;;18.00;10.40;;;;;;;14.30;78.62;101361.34;5070520;28;20108;-52
2023/05/05 03:10:38;;;;;;;20.45;11.05;;;;;;;14.23;79.31;101349.81;5071968;28;20480;-52
2023/05/05 03:13:08;;;;;;;19.25;10.70;;;;;;;14.18;80.06;101361.09;5071886;28;20340;-53
2023/05/05 03:15:40;;;;;;;16.90;9.93;;;;;;;14.13;80.13;101364.81;5071905;28;20063;-53
2023/05/05 03:18:11;;;;;;;16.52;9.57;;;;;;;14.09;80.20;101349.91;5072218;28;20032;-56
2023/05/05 03:20:39;;;;;;;17.35;9.80;;;;;;;14.04;80.79;101361.97;5071998;28;20040;-53
2023/05/05 03:23:05;;;;;;;17.90;10.40;;;;;;;13.99;80.84;101362.13;5072037;28;20111;-53
2023/05/05 03:25:49;;;;;;;17.10;10.43;;;;;;;13.99;80.17;101366.84;5071993;28;20028;-53
2023/05/05 03:28:15;;;;;;;19.63;11.23;;;;;;;13.89;81.42;101374.31;5035364;28;1043932;-53
2023/05/05 03:30:41;;;;;;;18.27;10.68;;;;;;;13.83;81.74;101372.00;5072738;28;20059;-53
2023/05/05 03:33:10;;;;;;;17.58;10.45;;;;;;;13.78;82.07;101372.94;5072640;28;20028;-53
2023/05/05 03:35:36;;;;;;;17.80;10.85;;;;;;;13.75;82.69;101383.84;5072725;28;20078;-54
2023/05/05 03:38:01;;;;;;;19.20;10.32;;;;;;;13.73;82.53;101375.81;5072598;28;20025;-53
2023/05/05 03:40:26;;;;;;;18.75;10.48;;;;;;;13.66;83.18;101376.25;5071121;28;20020;-53
2023/05/05 03:42:51;;;;;;;18.20;10.73;;;;;;;13.60;83.26;101380.31;5072514;28;20424;-52
2023/05/05 03:45:17;;;;;;;17.15;10.32;;;;;;;13.56;84.13;101379.28;5072236;28;20089;-52
2023/05/05 03:47:42;;;;;;;18.85;11.15;;;;;;;13.45;85.07;101381.47;5070866;28;20036;-52
2023/05/05 03:50:08;;;;;;;17.88;10.45;;;;;;;13.43;84.65;101380.16;5072301;28;20036;-53
2023/05/05 03:52:33;;;;;;;18.38;10.95;;;;;;;13.33;85.57;101370.88;5072195;28;20391;-52
2023/05/05 03:54:59;;;;;;;18.52;10.98;;;;;;;13.29;86.28;101369.84;5072010;28;20465;-52
2023/05/05 03:57:25;;;;;;;18.65;10.75;;;;;;;13.21;86.44;101382.53;5071260;28;20046;-52
2023/05/05 03:59:50;;;;;;;22.90;13.93;;;;;;;13.17;87.61;101392.59;5071783;28;20423;-53
2023/05/05 04:02:15;;;;;;;18.25;11.45;;;;;;;13.13;87.46;101391.56;5071746;28;20028;-50
2023/05/05 04:04:40;;;;;;;19.98;12.95;;;;;;;13.06;88.56;101386.47;5071853;28;20067;-50
2023/05/05 04:07:06;;;;;;;22.02;14.23;;;;;;;13.03;89.45;101394.59;5070436;28;20028;-53
2023/05/05 04:09:31;;;;;;;22.40;14.23;;;;;;;13.00;89.75;101395.19;5071989;28;20050;-52
2023/05/05 04:11:56;;;;;;;23.75;14.80;;;;;;;12.97;90.16;101399.41;5071623;28;20112;-54
2023/05/05 04:14:22;;;;;;;22.90;15.45;;;;;;;13.02;90.42;101398.50;5071869;28;20408;-53
2023/05/05 04:16:47;;;;;;;21.67;15.57;;;;;;;13.02;90.57;101406.81;5071751;28;20020;-53
2023/05/05 04:19:12;;;;;;;23.50;15.88;;;;;;;13.06;90.05;101402.28;5071724;28;20099;-53
2023/05/05 04:21:38;;;;;;;24.10;16.20;;;;;;;13.10;90.49;101406.09;5071549;28;20503;-53
2023/05/05 04:24:03;;;;;;;24.65;16.58;;;;;;;13.08;90.82;101402.81;5070026;28;20032;-52
2023/05/05 04:26:28;;;;;;;24.58;16.75;;;;;;;13.05;91.37;101408.97;5071378;28;20078;-53
2023/05/05 04:28:54;;;;;;;24.23;15.48;;;;;;;13.03;91.31;101419.59;5071172;28;20048;-52
2023/05/05 04:31:19;;;;;;;24.13;15.93;;;;;;;12.95;91.80;101410.81;5071220;28;20496;-53
2023/05/05 04:33:45;;;;;;;24.13;15.82;;;;;;;13.03;91.93;101416.81;5071312;28;20220;-53
2023/05/05 04:36:10;;;;;;;24.58;16.83;;;;;;;13.03;91.71;101423.16;5071351;28;20452;-53
2023/05/05 04:38:36;;;;;;;25.52;17.95;;;;;;;13.04;92.20;101413.72;5071171;28;20517;-54
2023/05/05 04:41:05;;;;;;;24.25;16.30;;;;;;;13.07;91.83;101424.22;5071349;28;20451;-53
2023/05/05 04:43:30;;;;;;;23.58;16.30;;;;;;;13.10;92.40;101414.44;5071075;28;20043;-52
2023/05/05 04:45:56;;;;;;;25.23;17.85;;;;;;;13.08;92.48;101425.03;5070748;28;20028;-51
2023/05/05 04:48:21;;;;;;;24.00;16.73;;;;;;;13.08;91.68;101427.81;5071057;28;20032;-54
2023/05/05 04:50:46;;;;;;;25.52;16.80;;;;;;;13.08;92.75;101425.03;5070959;28;20028;-53
2023/05/05 04:53:12;;;;;;;25.60;17.73;;;;;;;13.03;93.54;101420.41;5069535;28;20100;-54
2023/05/05 04:55:40;;;;;;;26.45;17.90;;;;;;;12.99;93.83;101432.44;5070967;28;20020;-52
2023/05/05 04:58:05;;;;;;;23.73;16.75;;;;;;;13.01;93.59;101424.63;5070914;28;20035;-49
2023/05/05 05:00:31;;;;;;;27.52;17.60;;;;;;;13.04;92.91;101427.59;5070797;28;20025;-53
2023/05/05 05:02:56;;;;;;;25.27;17.13;;;;;;;13.08;92.74;101427.81;5071179;28;20126;-51
2023/05/05 05:05:22;;;;;;;24.50;16.95;;;;;;;13.11;92.05;101421.63;5070904;28;20025;-51
2023/05/05 05:07:47;;;;;;;24.98;17.17;;;;;;;13.16;92.54;101429.84;5070655;28;20186;-52
2023/05/05 05:10:13;;;;;;;25.50;17.25;;;;;;;13.17;92.49;101422.34;5070856;28;20453;-52
2023/05/05 05:12:38;;;;;;;23.02;15.73;;;;;;;13.20;92.13;101425.34;5070829;28;20431;-51
2023/05/05 05:15:04;;;;;;;25.05;16.42;;;;;;;13.23;92.44;101413.56;5070685;28;20025;-53
2023/05/05 05:17:30;;;;;;;26.48;16.80;;;;;;;13.30;91.84;101421.50;5070668;28;20392;-53
2023/05/05 05:19:58;;;;;;;23.45;16.70;;;;;;;13.30;91.51;101418.72;5070595;28;20028;-54
2023/05/05 05:22:23;;;;;;;23.42;16.52;;;;;;;13.34;91.04;101418.91;5070625;28;20028;-54
2023/05/05 05:24:48;;;;;;;24.42;16.67;;;;;;;13.33;91.43;101414.50;5070619;28;20021;-53
2023/05/05 05:27:13;;;;;;;24.40;17.17;;;;;;;13.34;91.60;101418.91;5070561;28;20476;-53
2023/05/05 05:29:39;;;;;;;23.95;16.92;;;;;;;13.33;91.89;101414.50;5070917;28;20508;-53
2023/05/05 05:32:04;;;;;;;26.25;17.60;;;;;;;13.35;92.27;101418.63;5070665;28;20036;-52
2023/05/05 05:34:30;;;;;;;25.10;17.13;;;;;;;13.43;91.71;101421.84;5070731;28;20029;-53
2023/05/05 05:36:55;;;;;;;25.27;17.35;;;;;;;13.46;91.71;101421.22;5070708;28;20025;-54
2023/05/05 05:39:21;;;;;;;24.80;17.70;;;;;;;13.57;91.07;101430.94;5069207;28;20540;-52
2023/05/05 05:41:46;;;;;;;26.17;17.90;;;;;;;13.64;91.34;101424.97;5070698;28;20120;-51
2023/05/05 05:44:11;;;;;;;26.25;18.55;;;;;;;13.69;91.18;101436.00;5070416;28;20032;-52
2023/05/05 05:46:37;;;;;;;25.40;17.83;;;;;;;13.78;90.20;101431.34;5070374;28;20102;-52
2023/05/05 05:49:02;;;;;;;24.60;17.35;;;;;;;13.88;89.42;101431.09;5070164;28;20026;-53
2023/05/05 05:51:27;;;;;;;24.92;17.77;;;;;;;13.91;90.12;101435.19;5070324;28;20130;-52
2023/05/05 05:53:53;;;;;;;24.23;17.35;;;;;;;14.00;88.84;101433.31;5070408;28;20062;-53
2023/05/05 05:56:18;;;;;;;25.50;17.85;;;;;;;14.08;88.19;101439.25;5070017;28;20020;-53
2023/05/05 05:58:44;;;;;;;25.85;17.88;;;;;;;14.14;88.50;101447.16;5070140;28;20028;-54
2023/05/05 06:01:09;;;;;;;25.35;18.05;;;;;;;14.23;87.98;101451.97;5068572;28;20187;-53
2023/05/05 06:03:35;;;;;;;26.45;17.73;;;;;;;14.32;88.02;101462.00;5070020;28;20047;-53
2023/05/05 06:06:00;;;;;;;24.92;18.20;;;;;;;14.39;87.65;101469.91;5069936;28;20540;-52
2023/05/05 06:08:25;;;;;;;26.15;18.58;;;;;;;14.48;87.52;101483.91;5069850;28;20036;-53
2023/05/05 06:10:51;;;;;;;27.13;17.75;;;;;;;14.54;87.51;101490.16;5069877;28;20032;-52
2023/05/05 06:13:16;;;;;;;26.48;18.67;;;;;;;14.60;87.82;101489.69;5069844;28;20040;-52
2023/05/05 06:15:42;;;;;;;25.75;17.77;;;;;;;14.70;87.46;101490.59;5068490;28;20029;-53
2023/05/05 06:18:07;;;;;;;26.38;18.45;;;;;;;14.75;87.32;101485.72;5070108;28;20090;-53
2023/05/05 06:20:32;;;;;;;25.23;17.90;;;;;;;14.83;87.79;101489.72;5072201;28;20028;-52
2023/05/05 06:22:58;;;;;;;26.67;18.80;;;;;;;14.90;87.97;101483.69;5073611;28;20020;-53
2023/05/05 06:25:23;;;;;;;28.58;19.85;;;;;;;14.99;87.79;101490.13;5073739;28;20024;-49
2023/05/05 06:27:48;;;;;;;27.77;20.50;;;;;;;15.09;87.94;101486.22;5073518;28;20033;-53
2023/05/05 06:30:14;;;;;;;28.50;20.23;;;;;;;15.20;87.42;101490.38;5072038;28;20079;-53
2023/05/05 06:32:39;;;;;;;26.45;19.27;;;;;;;15.30;86.98;101492.06;5073557;28;20109;-52
2023/05/05 06:35:05;;;;;;;27.85;20.10;;;;;;;15.41;86.67;101506.50;5073370;28;20036;-52
2023/05/05 06:37:31;;;;;;;27.48;20.67;;;;;;;15.50;86.23;101493.41;5073174;28;20036;-53
2023/05/05 06:39:56;;;;;;;29.00;21.00;;;;;;;15.53;86.34;101494.72;5073283;28;20029;-53
2023/05/05 06:42:21;;;;;;;30.23;21.80;;;;;;;15.59;86.14;101499.00;5073090;28;20032;-52
2023/05/05 06:44:47;;;;;;;29.13;20.38;;;;;;;15.67;85.77;101503.81;5072999;28;20025;-53
2023/05/05 06:47:12;;;;;;;28.13;20.20;;;;;;;15.72;85.35;101497.25;5073165;28;20062;-50
2023/05/05 06:49:37;;;;;;;29.85;19.80;;;;;;;15.75;85.51;101500.19;5073136;28;20107;-50
2023/05/05 06:52:03;;;;;;;28.75;19.20;;;;;;;15.82;85.11;101493.31;5073096;28;20024;-54
2023/05/05 06:54:28;;;;;;;25.48;18.48;;;;;;;15.85;84.97;101495.50;5073151;28;20507;-53
2023/05/05 06:56:53;;;;;;;26.27;18.52;;;;;;;15.86;85.00;101494.34;5071539;28;20506;-52
2023/05/05 06:59:18;;;;;;;28.45;19.15;;;;;;;15.92;84.72;101489.44;5073254;28;20020;-51
2023/05/05 07:01:44;;;;;;;25.33;17.85;;;;;;;15.97;83.12;101492.84;5073171;28;20029;-53
2023/05/05 07:04:10;;;;;;;26.52;18.10;;;;;;;15.96;82.63;101502.41;5073101;28;20021;-53
2023/05/05 07:06:35;;;;;;;25.50;17.00;;;;;;;15.98;82.87;101494.50;5072992;28;20107;-50
2023/05/05 07:09:00;;;;;;;27.35;18.55;;;;;;;16.06;83.17;101506.81;5072874;28;20399;-53
2023/05/05 07:11:25;;;;;;;25.23;17.67;;;;;;;16.14;82.73;101506.00;5072768;28;20054;-53
2023/05/05 07:13:51;;;;;;;24.30;17.20;;;;;;;16.18;82.07;101506.16;5072604;28;20121;-52
2023/05/05 07:16:16;;;;;;;24.33;16.60;;;;;;;16.20;81.11;101504.69;5072558;28;20439;-52
2023/05/05 07:18:41;;;;;;;25.30;16.67;;;;;;;16.26;81.14;101505.34;5072754;28;20496;-52
2023/05/05 07:21:07;;;;;;;23.92;15.93;;;;;;;16.34;80.63;101506.50;5072831;28;20506;-50
2023/05/05 07:23:33;;;;;;;24.23;15.82;;;;;;;16.40;79.53;101507.94;5072662;28;20021;-51
2023/05/05 07:25:58;;;;;;;23.00;16.08;;;;;;;16.49;79.50;101514.34;5072708;28;20021;-50
2023/05/05 07:28:24;;;;;;;24.73;15.35;;;;;;;16.56;78.21;101511.06;5072350;28;20044;-49
2023/05/05 07:30:50;;;;;;;24.83;15.07;;;;;;;16.62;78.07;101520.94;5071933;28;20028;-52
2023/05/05 07:33:17;;;;;;;23.20;15.00;;;;;;;16.66;77.66;101516.31;5070670;28;20033;-48
2023/05/05 07:35:43;;;;;;;21.98;14.80;;;;;;;16.73;77.48;101515.81;5071373;28;20595;-51
2023/05/05 07:38:08;;;;;;;23.42;14.73;;;;;;;16.83;77.56;101514.63;5072383;28;20127;-51
2023/05/05 07:40:34;;;;;;;23.52;14.73;;;;;;;16.95;75.81;101514.78;5072406;28;20070;-51
2023/05/05 07:43:00;;;;;;;23.15;15.02;;;;;;;17.09;74.83;101522.16;5072443;28;20074;-51
2023/05/05 07:45:25;;;;;;;23.05;14.48;;;;;;;17.23;74.27;101519.13;5072797;28;20511;-50
2023/05/05 07:47:51;;;;;;;22.15;14.13;;;;;;;17.39;73.35;101509.03;5072493;28;20039;-51
2023/05/05 07:50:17;;;;;;;22.75;14.57;;;;;;;17.53;71.92;101510.75;5072518;28;20059;-52
2023/05/05 07:52:42;;;;;;;23.90;14.32;;;;;;;17.66;71.01;101504.09;5072224;28;20044;-49
2023/05/05 07:55:08;;;;;;;24.13;14.27;;;;;;;17.75;70.80;101502.06;5072314;28;20055;-53
2023/05/05 07:57:33;;;;;;;23.70;14.77;;;;;;;17.90;70.20;101503.44;5072284;28;20025;-52
2023/05/05 07:59:58;;;;;;;21.77;13.80;;;;;;;17.96;69.58;101506.88;5070785;28;20111;-50
2023/05/05 08:02:23;;;;;;;21.65;13.50;;;;;;;17.96;69.03;101506.88;5072102;28;20365;-53
2023/05/05 08:04:49;;;;;;;22.70;14.25;;;;;;;18.00;69.45;101501.44;5072100;28;20068;-50
2023/05/05 08:07:14;;;;;;;22.40;13.52;;;;;;;18.09;68.51;101500.19;5072145;28;20146;-53
2023/05/05 08:09:40;;;;;;;21.95;13.43;;;;;;;18.26;67.71;101501.22;5071936;28;20391;-52
2023/05/05 08:12:06;;;;;;;21.45;13.07;;;;;;;18.42;67.24;101500.56;5071878;28;20101;-52
2023/05/05 08:14:31;;;;;;;23.17;13.88;;;;;;;18.57;67.47;101497.13;5070543;28;20456;-52
2023/05/05 08:16:56;;;;;;;21.45;14.13;;;;;;;18.62;67.03;101496.91;5071769;28;20024;-53
2023/05/05 08:19:23;;;;;;;21.58;14.07;;;;;;;18.88;67.08;101497.78;5070271;28;20128;-53
2023/05/05 08:21:48;;;;;;;21.67;13.90;;;;;;;19.03;65.40;101494.34;5071928;28;20063;-50
2023/05/05 08:24:13;;;;;;;21.58;13.63;;;;;;;19.24;65.40;101501.84;5071979;28;20108;-53
2023/05/05 08:26:39;;;;;;;20.58;12.90;;;;;;;19.42;64.83;101505.22;5071934;28;20115;-51
2023/05/05 08:29:04;;;;;;;22.60;13.25;;;;;;;19.48;62.97;101513.06;5071312;28;20087;-51
2023/05/05 08:31:35;;;;;;;22.80;14.10;;;;;;;19.60;62.48;101501.00;5071612;28;20107;-53
2023/05/05 08:34:01;;;;;;;22.15;13.25;;;;;;;19.60;62.33;101514.22;5071683;28;20874;-52
2023/05/05 08:36:27;;;;;;;21.73;12.93;;;;;;;19.71;62.51;101504.16;5071553;28;20037;-52
2023/05/05 08:38:53;;;;;;;21.48;13.40;;;;;;;19.83;62.58;101502.50;5071572;28;20098;-52
2023/05/05 08:41:19;;;;;;;22.55;12.90;;;;;;;19.97;62.77;101507.78;5071514;28;20028;-51
2023/05/05 08:43:49;;;;;;;21.52;12.30;;;;;;;19.97;61.81;101507.78;5071095;28;20024;-50
2023/05/05 08:46:15;;;;;;;20.67;11.73;;;;;;;20.02;60.43;101502.72;5071347;28;20445;-53
2023/05/05 08:48:42;;;;;;;20.73;12.00;;;;;;;20.08;60.71;101512.53;5071126;28;20032;-52
2023/05/05 08:51:12;;;;;;;20.17;11.70;;;;;;;20.24;61.06;101511.75;5071181;28;20531;-53
2023/05/05 08:54:14;;;;;;;19.35;10.93;;;;;;;20.29;60.95;101511.53;5071064;28;20029;-52
2023/05/05 08:56:42;;;;;;;19.55;11.32;;;;;;;20.19;59.57;101506.41;5059312;28;20037;-52
2023/05/05 08:59:09;;;;;;;19.45;11.15;;;;;;;20.12;59.61;101512.63;5071368;28;20649;-49
2023/05/05 09:01:35;;;;;;;18.88;10.15;;;;;;;20.06;58.95;101516.88;5070993;28;20031;-49
2023/05/05 09:04:03;;;;;;;20.13;11.15;;;;;;;20.07;59.83;101515.72;5070928;28;20021;-52
2023/05/05 09:06:31;;;;;;;18.85;10.93;;;;;;;20.05;58.98;101515.22;5070872;28;20043;-52
2023/05/05 09:08:56;;;;;;;18.13;9.98;;;;;;;19.97;58.93;101514.19;5070981;28;20487;-53
2023/05/05 09:11:22;;;;;;;18.67;9.75;;;;;;;20.01;58.75;101506.72;5070821;28;20032;-54
2023/05/05 09:13:47;;;;;;;16.98;9.57;;;;;;;20.04;58.53;101505.97;5070965;28;20020;-53
2023/05/05 09:16:12;;;;;;;20.58;10.73;;;;;;;20.17;59.49;101511.56;5069436;28;20575;-54
2023/05/05 09:18:39;;;;;;;19.45;10.77;;;;;;;20.24;58.54;101509.78;5070586;28;20031;-54
2023/05/05 09:21:23;;;;;;;19.10;10.50;;;;;;;20.38;59.21;101508.56;5070722;28;20029;-54
2023/05/05 09:24:08;;;;;;;19.65;9.98;;;;;;;20.54;58.50;101512.25;5070883;28;20042;-53
2023/05/05 09:26:36;;;;;;;18.95;9.93;;;;;;;20.62;56.09;101518.06;5070644;28;20024;-53
2023/05/05 09:29:02;;;;;;;17.52;9.55;;;;;;;20.69;55.71;101516.25;5070340;28;20139;-52
2023/05/05 09:31:32;;;;;;;16.38;8.80;;;;;;;20.80;55.06;101521.38;5070612;28;20487;-53
2023/05/05 09:33:59;;;;;;;15.80;8.10;;;;;;;20.84;53.81;101520.28;5070683;28;20035;-54
2023/05/05 09:36:47;;;;;;;17.48;9.70;;;;;;;20.92;55.76;101520.50;5070630;28;20031;-53
2023/05/05 09:39:18;;;;;;;18.00;9.40;;;;;;;20.87;55.22;101522.41;5070638;28;20434;-51
2023/05/05 09:41:44;;;;;;;16.38;8.50;;;;;;;20.83;54.16;101520.66;5070669;28;20033;-53
2023/05/05 09:44:11;;;;;;;15.05;8.13;;;;;;;20.72;54.25;101532.41;5070300;28;20548;-54
2023/05/05 09:46:37;;;;;;;12.73;7.97;;;;;;;20.58;53.77;101518.78;5070502;28;20109;-52
2023/05/05 09:49:17;;;;;;;15.40;8.70;;;;;;;20.42;55.10;101527.16;5070595;28;20078;-48
2023/05/05 09:51:46;;;;;;;16.90;8.93;;;;;;;20.29;55.30;101517.16;5070666;28;20484;-54
2023/05/05 09:54:33;;;;;;;15.45;8.88;;;;;;;20.33;56.61;101520.06;5070520;28;20485;-51
2023/05/05 09:56:58;;;;;;;16.08;8.90;;;;;;;20.26;56.21;101513.03;5074714;28;20052;-51
2023/05/05 09:59:24;;;;;;;16.40;8.82;;;;;;;20.30;56.37;101513.16;5074180;28;20485;-53
2023/05/05 10:01:50;;;;;;;17.67;9.00;;;;;;;20.30;56.02;101501.94;5074292;28;20020;-51
2023/05/05 10:04:41;;;;;;;17.00;9.45;;;;;;;20.30;57.29;101504.75;5074319;28;20060;-51
2023/05/05 10:07:06;;;;;;;18.60;10.85;;;;;;;20.24;56.98;101498.56;5072891;28;20583;-53
2023/05/05 10:09:32;;;;;;;18.08;10.55;;;;;;;20.31;57.35;101503.53;5074162;28;20050;-52
2023/05/05 10:12:00;;;;;;;18.52;9.25;;;;;;;20.31;57.46;101497.13;5072715;28;20484;-51
2023/05/05 10:14:26;;;;;;;18.85;9.85;;;;;;;20.30;57.08;101506.72;5073955;28;20020;-52
2023/05/05 10:16:54;;;;;;;18.50;9.60;;;;;;;20.36;57.78;101505.28;5073962;28;20040;-53
2023/05/05 10:19:23;;;;;;;20.58;9.80;;;;;;;20.36;57.30;101502.47;5073797;28;20046;-51
2023/05/05 10:21:53;;;;;;;16.90;9.35;;;;;;;20.32;56.93;101495.94;5073936;28;20023;-53
2023/05/05 10:24:38;;;;;;;17.85;9.30;;;;;;;20.35;58.10;101492.44;5072375;28;20024;-52
2023/05/05 10:27:12;;;;;;;17.25;9.80;;;;;;;20.30;57.78;101499.13;5073821;28;20099;-52
2023/05/05 10:29:47;;;;;;;16.63;9.35;;;;;;;20.34;57.28;101493.59;5073575;28;20415;-53
2023/05/05 10:32:28;;;;;;;17.52;8.88;;;;;;;20.32;57.26;101491.13;5073805;28;20025;-52
2023/05/05 10:35:01;;;;;;;17.27;9.23;;;;;;;20.21;57.40;101496.44;5073596;28;20034;-50
2023/05/05 10:37:28;;;;;;;17.67;9.13;;;;;;;20.12;57.24;101494.97;5073494;28;20128;-53
2023/05/05 10:39:55;;;;;;;16.17;8.75;;;;;;;19.91;58.27;101493.97;5073297;28;20119;-52
2023/05/05 10:42:22;;;;;;;15.32;8.75;;;;;;;19.62;59.96;101493.03;5073410;28;20104;-50
2023/05/05 10:44:48;;;;;;;20.30;10.40;;;;;;;19.26;62.33;101499.50;5073401;28;20111;-53
2023/05/05 10:47:14;;;;;;;20.35;10.20;;;;;;;19.15;65.16;101501.94;5073501;28;20119;-52
2023/05/05 10:50:03;;;;;;;20.50;11.35;;;;;;;18.97;71.65;101510.56;5073460;28;20029;-52
2023/05/05 10:53:14;;;;;;;21.40;12.77;;;;;;;18.65;74.41;101529.84;5073638;28;20173;-52
2023/05/05 10:56:14;;;;;;;22.45;12.63;;;;;;;18.21;82.17;101535.00;5073327;28;20028;-51
2023/05/05 10:58:40;;;;;;;22.42;12.55;;;;;;;17.67;85.97;101533.72;5073332;28;20181;-54
2023/05/05 11:01:06;;;;;;;19.88;12.60;;;;;;;17.18;85.33;101524.91;5073381;28;20036;-51
2023/05/05 11:03:32;;;;;;;21.52;12.90;;;;;;;17.08;90.16;101540.88;5073253;28;20083;-49
2023/05/05 11:06:06;;;;;;;22.92;13.93;;;;;;;17.00;92.54;101536.94;5072867;28;20549;-52
2023/05/05 11:08:43;;;;;;;21.75;13.48;;;;;;;17.00;93.82;101527.75;5073278;28;20031;-51
2023/05/05 11:11:09;;;;;;;20.63;13.63;;;;;;;17.01;94.08;101535.00;5073191;28;20028;-52
2023/05/05 11:13:35;;;;;;;21.77;13.90;;;;;;;16.97;94.46;101534.00;5073167;28;20376;-52